createdAt,value
2017-09-24T07:18:20.055Z,101721.00
2017-09-24T07:20:48.581Z,101722.23
2017-09-24T07:23:16.971Z,101732.27
2017-09-24T07:25:45.510Z,101727.14
2017-09-24T07:28:17.785Z,101723.39
2017-09-24T07:30:54.330Z,101726.72
2017-09-24T07:33:22.877Z,101723.36
2017-09-24T07:35:51.425Z,101730.52
2017-09-24T07:38:20.071Z,101735.78
2017-09-24T07:40:48.506Z,101735.72
2017-09-24T07:43:16.993Z,101742.05
2017-09-24T07:45:45.402Z,101734.41
2017-09-24T07:48:13.780Z,101743.87
2017-09-24T07:50:42.156Z,101744.20
2017-09-24T07:53:10.512Z,101745.98
2017-09-24T07:55:39.025Z,101746.49
2017-09-24T07:58:07.468Z,101749.74
2017-09-24T08:00:35.921Z,101750.84
2017-09-24T08:03:04.512Z,101750.42
2017-09-24T08:05:32.918Z,101748.61
2017-09-24T08:08:01.303Z,101745.44
2017-09-24T08:10:29.865Z,101742.67
2017-09-24T08:12:58.256Z,101748.97
2017-09-24T08:15:26.729Z,101745.08
2017-09-24T08:17:56.361Z,101752.63
2017-09-24T08:20:24.891Z,101750.14
2017-09-24T08:22:53.919Z,101745.16
2017-09-24T08:25:22.581Z,101747.57
2017-09-24T08:27:50.986Z,101754.19
2017-09-24T08:30:19.819Z,101756.22
2017-09-24T08:32:48.451Z,101762.02
2017-09-24T08:35:17.771Z,101770.72
2017-09-24T08:37:47.360Z,101769.05
2017-09-24T08:40:15.884Z,101773.75
2017-09-24T08:42:44.419Z,101769.46
2017-09-24T08:45:13.266Z,101773.13
2017-09-24T08:47:41.873Z,101774.22
2017-09-24T08:50:11.773Z,101774.62
2017-09-24T08:52:40.373Z,101782.80
2017-09-24T08:55:08.858Z,101779.62
2017-09-24T08:57:37.866Z,101783.49
2017-09-24T09:00:06.451Z,101779.20
2017-09-24T09:02:34.883Z,101783.20
2017-09-24T09:05:03.362Z,101774.94
2017-09-24T09:07:31.968Z,101777.62
2017-09-24T09:10:00.370Z,101778.58
2017-09-24T09:12:28.807Z,101779.83
2017-09-24T09:14:57.233Z,101779.81
2017-09-24T09:17:25.713Z,101788.52
2017-09-24T09:19:54.177Z,101790.45
2017-09-24T09:22:22.584Z,101794.62
2017-09-24T09:24:51.887Z,101787.84
2017-09-24T09:27:20.474Z,101794.38
2017-09-24T09:29:49.450Z,101792.95
2017-09-24T09:32:18.685Z,101791.81
2017-09-24T09:34:56.658Z,101788.22
2017-09-24T09:37:25.313Z,101794.98
2017-09-24T09:39:53.982Z,101796.46
2017-09-24T09:42:23.504Z,101800.75
2017-09-24T09:44:52.982Z,101797.02
2017-09-24T09:47:27.075Z,101798.80
2017-09-24T09:49:56.562Z,101800.39
2017-09-24T09:52:25.119Z,101800.67
2017-09-24T09:54:53.596Z,101806.53
2017-09-24T09:57:22.616Z,101807.77
2017-09-24T09:59:51.796Z,101802.23
2017-09-24T10:02:20.371Z,101804.66
2017-09-24T10:04:49.130Z,101808.91
2017-09-24T10:07:26.582Z,101813.16
2017-09-24T10:10:17.001Z,101817.45
2017-09-24T10:12:46.891Z,101814.80
2017-09-24T10:15:15.411Z,101821.14
2017-09-24T10:17:44.215Z,101823.48
2017-09-24T10:20:12.655Z,101822.72
2017-09-24T10:22:41.943Z,101828.11
2017-09-24T10:25:10.761Z,101822.55
2017-09-24T10:27:39.733Z,101826.06
2017-09-24T10:30:17.318Z,101831.66
2017-09-24T10:32:46.470Z,101822.49
2017-09-24T10:35:18.315Z,101824.67
2017-09-24T10:37:49.636Z,101822.99
2017-09-24T10:40:20.284Z,101826.44
2017-09-24T10:42:50.275Z,101824.64
2017-09-24T10:45:22.070Z,101829.09
2017-09-24T10:47:51.529Z,101832.20
2017-09-24T10:50:20.173Z,101830.00
2017-09-24T10:52:50.366Z,101838.17
2017-09-24T10:55:20.013Z,101834.44
2017-09-24T10:57:48.882Z,101833.73
2017-09-24T11:00:18.761Z,101827.53
2017-09-24T11:02:47.863Z,101823.69
2017-09-24T11:05:17.417Z,101826.42
2017-09-24T11:07:45.840Z,101820.29
2017-09-24T11:10:14.769Z,101829.70
2017-09-24T11:12:43.396Z,101828.88
2017-09-24T11:15:13.434Z,101835.30
2017-09-24T11:17:42.569Z,101833.82
2017-09-24T11:20:11.083Z,101839.87
2017-09-24T11:22:40.239Z,101846.70
2017-09-24T11:25:09.475Z,101842.23
2017-09-24T11:27:37.936Z,101845.35
2017-09-24T11:30:08.802Z,101846.53
2017-09-24T11:32:38.056Z,101851.63
2017-09-24T11:35:07.936Z,101853.48
2017-09-24T11:37:37.164Z,101852.91
2017-09-24T11:40:07.633Z,101860.72
2017-09-24T11:42:36.419Z,101856.44
2017-09-24T11:45:05.490Z,101859.50
2017-09-24T11:47:33.916Z,101867.80
2017-09-24T11:50:05.628Z,101851.48
2017-09-24T11:52:34.633Z,101856.55
2017-09-24T11:55:03.341Z,101862.52
2017-09-24T11:57:32.316Z,101862.08
2017-09-24T12:00:00.948Z,101871.08
2017-09-24T12:02:31.611Z,101875.50
2017-09-24T12:05:00.270Z,101878.48
2017-09-24T12:07:30.313Z,101876.83
2017-09-24T12:09:58.742Z,101882.10
2017-09-24T12:12:27.156Z,101875.50
2017-09-24T12:14:55.589Z,101881.62
2017-09-24T12:17:24.006Z,101881.11
2017-09-24T12:19:52.442Z,101876.28
2017-09-24T12:22:22.686Z,101877.94
2017-09-24T12:24:52.883Z,101874.56
2017-09-24T12:27:21.745Z,101874.41
2017-09-24T12:29:50.269Z,101875.26
2017-09-24T12:32:19.853Z,101880.22
2017-09-24T12:34:48.499Z,101878.36
2017-09-24T12:37:17.255Z,101882.20
2017-09-24T12:39:46.407Z,101882.27
2017-09-24T12:42:19.408Z,101875.62
2017-09-24T12:44:48.909Z,101885.72
2017-09-24T12:47:17.888Z,101879.86
2017-09-24T12:49:47.100Z,101887.45
2017-09-24T12:52:16.588Z,101885.44
2017-09-24T12:54:45.919Z,101884.94
2017-09-24T12:57:15.350Z,101884.09
2017-09-24T12:59:43.841Z,101889.16
2017-09-24T13:02:15.080Z,101889.36
2017-09-24T13:04:45.937Z,101882.85
2017-09-24T13:07:15.542Z,101891.33
2017-09-24T13:09:45.786Z,101882.73
2017-09-24T13:12:14.809Z,101888.05
2017-09-24T13:14:43.890Z,101886.67
2017-09-24T13:17:15.645Z,101888.88
2017-09-24T13:19:46.228Z,101889.70
2017-09-24T13:22:15.047Z,101884.81
2017-09-24T13:24:46.799Z,101883.70
2017-09-24T13:27:15.454Z,101884.61
2017-09-24T13:29:44.031Z,101887.67
2017-09-24T13:32:13.314Z,101892.38
2017-09-24T13:34:41.762Z,101895.32
2017-09-24T13:37:10.264Z,101892.23
2017-09-24T13:39:39.117Z,101894.11
2017-09-24T13:42:08.635Z,101891.96
2017-09-24T13:44:37.597Z,101889.38
2017-09-24T13:47:07.747Z,101896.77
2017-09-24T13:49:37.735Z,101893.47
2017-09-24T13:52:08.204Z,101893.86
2017-09-24T13:54:40.928Z,101891.09
2017-09-24T13:57:20.496Z,101895.48
2017-09-24T13:59:50.251Z,101903.34
2017-09-24T14:02:21.923Z,101896.95
2017-09-24T14:04:52.699Z,101898.36
2017-09-24T14:07:22.953Z,101891.98
2017-09-24T14:09:55.387Z,101895.06
2017-09-24T14:12:25.740Z,101896.69
2017-09-24T14:14:55.979Z,101897.10
2017-09-24T14:17:27.345Z,101899.19
2017-09-24T14:19:57.867Z,101892.39
2017-09-24T14:22:27.874Z,101885.48
2017-09-24T14:24:58.103Z,101886.95
2017-09-24T14:27:28.145Z,101878.64
2017-09-24T14:29:59.122Z,101874.76
2017-09-24T14:32:30.971Z,101868.67
2017-09-24T14:35:00.472Z,101866.61
2017-09-24T14:37:32.074Z,101866.34
2017-09-24T14:40:04.028Z,101869.49
2017-09-24T14:42:33.705Z,101865.61
2017-09-24T14:45:06.993Z,101872.80
2017-09-24T14:47:37.643Z,101867.31
2017-09-24T14:50:10.921Z,101872.38
2017-09-24T14:52:40.177Z,101871.00
2017-09-24T14:55:11.822Z,101865.50
2017-09-24T14:57:40.785Z,101868.14
2017-09-24T15:00:27.600Z,101866.73
2017-09-24T15:02:56.234Z,101878.22
2017-09-24T15:05:25.072Z,101878.08
2017-09-24T15:07:54.801Z,101874.36
2017-09-24T15:10:23.371Z,101875.19
2017-09-24T15:12:51.752Z,101876.84
2017-09-24T15:15:20.102Z,101880.92
2017-09-24T15:17:48.597Z,101883.31
2017-09-24T15:20:17.557Z,101873.42
2017-09-24T15:22:46.160Z,101876.01
2017-09-24T15:25:14.653Z,101876.77
2017-09-24T15:27:42.966Z,101884.14
2017-09-24T15:30:11.303Z,101882.78
2017-09-24T15:32:39.822Z,101886.34
2017-09-24T15:35:08.216Z,101889.64
2017-09-24T15:37:36.576Z,101885.02
2017-09-24T15:40:05.027Z,101887.22
2017-09-24T15:42:33.297Z,101893.88
2017-09-24T15:45:01.815Z,101897.89
2017-09-24T15:47:30.224Z,101900.25
2017-09-24T15:49:59.297Z,101903.84
2017-09-24T15:52:27.747Z,101903.55
2017-09-24T15:55:56.051Z,101901.53
2017-09-24T15:58:24.352Z,101904.69
2017-09-24T16:00:52.809Z,101908.43
2017-09-24T16:03:21.317Z,101910.64
2017-09-24T16:05:50.198Z,101907.05
2017-09-24T16:08:18.521Z,101902.41
2017-09-24T16:10:46.968Z,101904.57
2017-09-24T16:13:15.332Z,101907.45
2017-09-24T16:15:46.972Z,101900.59
2017-09-24T16:18:15.601Z,101904.67
2017-09-24T16:20:48.163Z,101902.02
2017-09-24T16:23:16.830Z,101905.98
2017-09-24T16:25:45.327Z,101909.39
2017-09-24T16:28:13.662Z,101907.39
2017-09-24T16:30:42.003Z,101910.02
2017-09-24T16:33:10.423Z,101916.12
2017-09-24T16:35:38.741Z,101914.62
2017-09-24T16:38:07.064Z,101919.66
2017-09-24T16:40:35.670Z,101916.36
2017-09-24T16:43:04.099Z,101913.53
2017-09-24T16:45:32.671Z,101909.11
2017-09-24T16:48:01.425Z,101912.33
2017-09-24T16:50:29.780Z,101908.20
2017-09-24T16:52:58.243Z,101920.73
2017-09-24T16:55:26.563Z,101926.30
2017-09-24T16:57:54.894Z,101927.18
2017-09-24T17:00:23.240Z,101929.56
2017-09-24T17:02:51.564Z,101926.03
2017-09-24T17:05:19.897Z,101929.50
2017-09-24T17:07:50.914Z,101924.41
2017-09-24T17:10:19.494Z,101923.08
2017-09-24T17:12:47.783Z,101928.77
2017-09-24T17:15:16.449Z,101927.27
2017-09-24T17:17:45.177Z,101933.54
2017-09-24T17:20:13.566Z,101927.47
2017-09-24T17:22:41.904Z,101931.91
2017-09-24T17:25:10.260Z,101924.91
2017-09-24T17:27:38.579Z,101933.50
2017-09-24T17:30:07.885Z,101935.73
2017-09-24T17:32:36.368Z,101935.47
2017-09-24T17:35:04.771Z,101941.33
2017-09-24T17:37:33.194Z,101942.86
2017-09-24T17:40:01.455Z,101939.00
2017-09-24T17:42:29.808Z,101942.47
2017-09-24T17:44:58.116Z,101942.23
2017-09-24T17:47:30.266Z,101940.73
2017-09-24T17:49:59.775Z,101940.31
2017-09-24T17:52:28.298Z,101946.41
2017-09-24T17:54:56.666Z,101947.12
2017-09-24T17:57:25.567Z,101944.08
2017-09-24T17:59:54.811Z,101951.00
2017-09-24T18:02:24.854Z,101952.15
2017-09-24T18:04:53.256Z,101954.09
2017-09-24T18:07:21.639Z,101955.77
2017-09-24T18:10:02.080Z,101963.80
2017-09-24T18:12:30.549Z,101957.44
2017-09-24T18:14:59.612Z,101949.88
2017-09-24T18:17:28.665Z,101952.78
2017-09-24T18:19:58.748Z,101957.23
2017-09-24T18:22:27.216Z,101957.38
2017-09-24T18:24:56.547Z,101955.72
2017-09-24T18:27:25.079Z,101957.11
2017-09-24T18:29:53.524Z,101950.74
2017-09-24T18:32:22.727Z,101948.71
2017-09-24T18:34:52.196Z,101951.63
2017-09-24T18:37:20.664Z,101943.47
2017-09-24T18:39:49.347Z,101950.12
2017-09-24T18:42:20.572Z,101954.27
2017-09-24T18:44:50.171Z,101954.56
2017-09-24T18:47:20.932Z,101959.30
2017-09-24T18:49:54.620Z,101958.77
2017-09-24T18:52:35.356Z,101952.96
2017-09-24T18:55:08.206Z,101957.25
2017-09-24T18:57:38.497Z,101958.96
2017-09-24T19:00:13.218Z,101968.94
2017-09-24T19:02:42.227Z,101971.98
2017-09-24T19:05:19.282Z,101969.13
2017-09-24T19:07:52.498Z,101967.62
2017-09-24T19:10:24.665Z,101971.36
2017-09-24T19:12:54.536Z,101969.85
2017-09-24T19:15:23.593Z,101971.38
2017-09-24T19:17:53.144Z,101968.79
2017-09-24T19:20:24.307Z,101970.31
2017-09-24T19:22:59.350Z,101966.86
2017-09-24T19:25:30.295Z,101969.92
2017-09-24T19:28:00.959Z,101970.06
2017-09-24T19:30:33.723Z,101970.38
2017-09-24T19:33:04.947Z,101964.03
2017-09-24T19:35:34.912Z,101969.84
2017-09-24T19:38:03.271Z,101969.72
2017-09-24T19:40:33.507Z,101945.45
2017-09-24T19:43:01.833Z,101961.62
2017-09-24T19:45:37.339Z,101959.19
2017-09-24T19:48:05.755Z,101964.30
2017-09-24T19:50:34.262Z,101957.53
2017-09-24T19:53:02.747Z,101961.56
2017-09-24T19:55:31.346Z,101959.11
2017-09-24T19:57:59.836Z,101956.22
2017-09-24T20:00:28.822Z,101960.39
2017-09-24T20:02:57.406Z,101960.70
2017-09-24T20:05:26.372Z,101964.17
2017-09-24T20:07:54.875Z,101963.19
2017-09-24T20:10:23.336Z,101970.27
2017-09-24T20:12:53.220Z,101967.23
2017-09-24T20:15:23.039Z,101972.37
2017-09-24T20:17:51.688Z,101964.22
2017-09-24T20:20:20.050Z,101959.83
2017-09-24T20:22:48.368Z,101962.05
2017-09-24T20:25:16.891Z,101967.31
2017-09-24T20:27:45.242Z,101964.05
2017-09-24T20:30:13.747Z,101959.36
2017-09-24T20:32:42.071Z,101964.76
2017-09-24T20:35:10.425Z,101968.08
2017-09-24T20:37:38.994Z,101966.59
2017-09-24T20:40:07.494Z,101962.59
2017-09-24T20:42:35.820Z,101967.85
2017-09-24T20:45:04.150Z,101969.64
2017-09-24T20:47:32.463Z,101970.08
2017-09-24T20:50:00.732Z,101971.05
2017-09-24T20:52:29.116Z,101971.50
2017-09-24T20:54:57.423Z,101976.90
2017-09-24T20:57:25.783Z,101977.22
2017-09-24T20:59:54.285Z,101973.63
2017-09-24T21:02:22.795Z,101972.94
2017-09-24T21:04:51.241Z,101974.20
2017-09-24T21:07:19.577Z,101974.34
2017-09-24T21:09:47.875Z,101970.92
2017-09-24T21:12:16.268Z,101974.23
2017-09-24T21:14:44.755Z,101970.92
2017-09-24T21:17:13.694Z,101968.16
2017-09-24T21:19:42.012Z,101966.36
2017-09-24T21:22:10.418Z,101958.21
2017-09-24T21:24:38.714Z,101965.67
2017-09-24T21:27:07.124Z,101962.91
2017-09-24T21:29:35.415Z,101956.27
2017-09-24T21:32:04.812Z,101953.51
2017-09-24T21:34:33.355Z,101952.55
2017-09-24T21:37:01.828Z,101948.54
2017-09-24T21:39:30.159Z,101955.59
2017-09-24T21:41:58.595Z,101950.06
2017-09-24T21:44:27.646Z,101951.45
2017-09-24T21:46:56.841Z,101953.80
2017-09-24T21:49:25.132Z,101955.59
2017-09-24T21:51:53.609Z,101951.17
2017-09-24T21:54:22.227Z,101951.59
2017-09-24T21:56:51.463Z,101952.97
2017-09-24T21:59:19.845Z,101953.38
2017-09-24T22:01:48.735Z,101952.83
2017-09-24T22:04:17.260Z,101963.88
2017-09-24T22:06:45.700Z,101963.61
2017-09-24T22:09:14.163Z,101961.53
2017-09-24T22:11:45.865Z,101962.22
2017-09-24T22:14:14.604Z,101968.39
2017-09-24T22:16:43.257Z,101965.08
2017-09-24T22:19:11.649Z,101960.38
2017-09-24T22:21:41.043Z,101959.27
2017-09-24T22:24:09.693Z,101964.23
2017-09-24T22:26:38.690Z,101967.55
2017-09-24T22:29:09.488Z,101960.88
2017-09-24T22:31:39.686Z,101963.50
2017-09-24T22:34:08.521Z,101959.77
2017-09-24T22:36:39.935Z,101954.38
2017-09-24T22:39:11.157Z,101951.05
2017-09-24T22:41:39.648Z,101952.17
2017-09-24T22:44:10.825Z,101956.63
2017-09-24T22:46:40.072Z,101949.03
2017-09-24T22:49:08.696Z,101950.43
2017-09-24T22:51:38.097Z,101945.22
2017-09-24T22:54:07.623Z,101945.37
2017-09-24T22:56:36.269Z,101947.91
2017-09-24T22:59:05.085Z,101957.45
2017-09-24T23:01:34.788Z,101947.92
2017-09-24T23:04:04.648Z,101950.69
2017-09-24T23:06:35.286Z,101947.97
2017-09-24T23:09:04.995Z,101945.08
2017-09-24T23:11:33.499Z,101944.84
2017-09-24T23:14:02.197Z,101936.13
2017-09-24T23:16:37.376Z,101938.36
2017-09-24T23:19:13.164Z,101938.08
2017-09-24T23:21:47.222Z,101941.26
2017-09-24T23:24:18.596Z,101939.61
2017-09-24T23:26:47.814Z,101942.52
2017-09-24T23:29:20.396Z,101942.37
2017-09-24T23:31:52.968Z,101942.92
2017-09-24T23:34:28.118Z,101934.63
2017-09-24T23:36:58.238Z,101934.81
2017-09-24T23:39:29.532Z,101929.84
2017-09-24T23:42:01.970Z,101936.19
2017-09-24T23:44:32.108Z,101935.88
2017-09-24T23:47:01.979Z,101931.73
2017-09-24T23:49:32.815Z,101928.14
2017-09-24T23:52:08.771Z,101921.23
2017-09-24T23:54:37.554Z,101922.48
2017-09-24T23:57:08.889Z,101919.30
2017-09-24T23:59:39.047Z,101916.81
